createdAt,value
2022-09-30T00:00:56.731Z,7.50
2022-09-30T00:03:24.397Z,7.60
2022-09-30T00:06:07.796Z,7.60
2022-09-30T00:08:36.676Z,7.60
2022-09-30T00:11:09.277Z,7.50
2022-09-30T00:13:38.349Z,7.50
2022-09-30T00:16:05.880Z,7.40
2022-09-30T00:18:33.257Z,7.50
2022-09-30T00:21:00.093Z,7.60
2022-09-30T00:23:26.845Z,7.60
2022-09-30T00:26:00.097Z,7.60
2022-09-30T00:28:27.246Z,7.60
2022-09-30T00:30:54.958Z,7.40
2022-09-30T00:33:21.638Z,7.30
2022-09-30T00:35:48.318Z,7.50
2022-09-30T00:38:15.191Z,7.50
2022-09-30T00:40:42.950Z,7.30
2022-09-30T00:43:15.065Z,7.30
2022-09-30T00:45:51.636Z,7.30
2022-09-30T00:48:22.577Z,7.40
2022-09-30T00:50:55.361Z,7.50
2022-09-30T00:53:30.864Z,7.50
2022-09-30T00:56:06.281Z,7.40
2022-09-30T00:58:46.990Z,7.30
2022-09-30T01:01:14.337Z,7.30
2022-09-30T01:04:04.468Z,7.40
2022-09-30T01:06:31.212Z,7.20
2022-09-30T01:08:58.566Z,7.20
2022-09-30T01:11:28.054Z,7.00
2022-09-30T01:13:59.782Z,7.00
2022-09-30T01:16:44.353Z,6.90
2022-09-30T01:19:38.664Z,7.10
2022-09-30T01:22:20.673Z,7.20
2022-09-30T01:25:13.096Z,7.20
2022-09-30T01:28:04.084Z,7.20
2022-09-30T01:30:53.822Z,7.10
2022-09-30T01:33:38.375Z,6.90
2022-09-30T01:36:05.970Z,7.20
2022-09-30T01:39:00.645Z,7.10
2022-09-30T01:41:58.700Z,6.80
2022-09-30T01:44:40.335Z,6.70
2022-09-30T01:47:33.085Z,6.70
2022-09-30T01:50:18.036Z,6.70
2022-09-30T01:53:06.061Z,6.70
2022-09-30T01:55:47.444Z,6.60
2022-09-30T01:58:35.321Z,6.50
2022-09-30T02:01:07.677Z,6.70
2022-09-30T02:03:41.827Z,6.60
2022-09-30T02:06:13.834Z,6.70
2022-09-30T02:09:13.321Z,6.80
2022-09-30T02:11:42.278Z,6.70
2022-09-30T02:14:16.900Z,6.70
2022-09-30T02:17:02.245Z,6.90
2022-09-30T02:19:49.530Z,6.80
2022-09-30T02:22:21.562Z,7.00
2022-09-30T02:24:54.445Z,7.00
2022-09-30T02:27:28.231Z,7.00
2022-09-30T02:30:00.332Z,6.90
2022-09-30T02:32:42.105Z,6.80
2022-09-30T02:35:13.973Z,6.80
2022-09-30T02:37:50.287Z,6.70
2022-09-30T02:40:33.443Z,6.70
2022-09-30T02:43:00.149Z,7.00
2022-09-30T02:45:28.634Z,7.10
2022-09-30T02:48:15.562Z,6.80
2022-09-30T02:50:50.144Z,6.70
2022-09-30T02:53:49.833Z,6.70
2022-09-30T02:56:48.846Z,6.70
2022-09-30T02:59:15.619Z,6.70
2022-09-30T03:01:43.484Z,6.80
2022-09-30T03:04:14.041Z,6.80
2022-09-30T03:06:41.053Z,6.90
2022-09-30T03:09:08.884Z,6.90
2022-09-30T03:11:37.259Z,7.00
2022-09-30T03:14:19.038Z,7.10
2022-09-30T03:16:51.546Z,7.40
2022-09-30T03:19:35.110Z,7.40
2022-09-30T03:22:14.112Z,7.20
2022-09-30T03:25:16.257Z,7.20
2022-09-30T03:28:29.458Z,6.80
2022-09-30T03:31:10.893Z,6.60
2022-09-30T03:33:55.251Z,6.60
2022-09-30T03:36:28.161Z,6.80
2022-09-30T03:39:37.095Z,7.00
2022-09-30T03:42:19.372Z,7.00
2022-09-30T03:45:34.149Z,6.90
2022-09-30T03:48:05.066Z,7.20
2022-09-30T03:50:34.610Z,7.20
2022-09-30T03:53:01.687Z,7.20
2022-09-30T03:55:29.325Z,7.20
2022-09-30T03:57:57.663Z,7.40
2022-09-30T04:00:24.396Z,7.30
2022-09-30T04:02:54.622Z,7.00
2022-09-30T04:05:23.801Z,6.80
2022-09-30T04:07:50.428Z,6.80
2022-09-30T04:10:17.107Z,6.70
2022-09-30T04:12:44.030Z,6.70
2022-09-30T04:15:10.965Z,6.70
2022-09-30T04:17:37.646Z,6.70
2022-09-30T04:20:04.682Z,6.80
2022-09-30T04:22:31.345Z,6.90
2022-09-30T04:24:58.020Z,6.70
2022-09-30T04:27:24.673Z,6.70
2022-09-30T04:29:51.383Z,6.70
2022-09-30T04:32:18.095Z,6.90
2022-09-30T04:34:44.748Z,6.90
2022-09-30T04:37:11.407Z,6.90
2022-09-30T04:39:38.145Z,6.70
2022-09-30T04:42:04.873Z,6.70
2022-09-30T04:44:31.533Z,6.60
2022-09-30T04:46:58.355Z,6.80
2022-09-30T04:49:25.062Z,6.70
2022-09-30T04:51:51.684Z,6.60
2022-09-30T04:54:19.311Z,6.70
2022-09-30T04:56:45.959Z,6.80
2022-09-30T04:59:12.968Z,6.50
2022-09-30T05:01:41.703Z,6.40
2022-09-30T05:04:08.432Z,6.20
2022-09-30T05:06:35.247Z,6.10
2022-09-30T05:09:02.014Z,6.00
2022-09-30T05:11:29.485Z,6.00
2022-09-30T05:13:56.202Z,6.20
2022-09-30T05:16:22.909Z,6.30
2022-09-30T05:18:49.642Z,6.40
2022-09-30T05:21:19.532Z,6.50
2022-09-30T05:23:46.961Z,6.60
2022-09-30T05:26:14.129Z,6.60
2022-09-30T05:28:41.834Z,6.40
2022-09-30T05:31:09.497Z,6.20
2022-09-30T05:33:36.378Z,6.10
2022-09-30T05:36:06.666Z,6.00
2022-09-30T05:38:33.914Z,6.10
2022-09-30T05:41:07.594Z,6.10
2022-09-30T05:43:34.755Z,6.20
2022-09-30T05:46:01.441Z,6.20
2022-09-30T05:48:28.357Z,6.60
2022-09-30T05:50:57.551Z,6.40
2022-09-30T05:53:24.711Z,6.40
2022-09-30T05:55:52.176Z,6.40
2022-09-30T05:58:19.624Z,6.40
2022-09-30T06:00:48.112Z,6.40
2022-09-30T06:03:15.873Z,6.30
2022-09-30T06:05:44.568Z,6.60
2022-09-30T06:08:12.075Z,6.60
2022-09-30T06:10:41.940Z,6.50
2022-09-30T06:13:09.118Z,6.60
2022-09-30T06:15:39.614Z,6.50
2022-09-30T06:18:07.368Z,6.50
2022-09-30T06:20:34.398Z,6.40
2022-09-30T06:23:01.309Z,6.40
2022-09-30T06:25:31.609Z,6.40
2022-09-30T06:27:58.493Z,6.50
2022-09-30T06:30:25.525Z,6.40
2022-09-30T06:32:54.003Z,6.30
2022-09-30T06:35:23.913Z,6.40
2022-09-30T06:37:54.003Z,6.30
2022-09-30T06:40:21.446Z,6.30
2022-09-30T06:42:49.673Z,6.40
2022-09-30T06:45:29.661Z,6.50
2022-09-30T06:48:01.680Z,6.80
2022-09-30T06:50:29.696Z,6.80
2022-09-30T06:53:06.232Z,6.80
2022-09-30T06:55:34.123Z,6.70
2022-09-30T06:58:01.116Z,6.70
2022-09-30T07:00:28.911Z,6.80
2022-09-30T07:02:58.936Z,6.70
2022-09-30T07:05:26.461Z,6.80
2022-09-30T07:07:54.182Z,6.90
2022-09-30T07:10:21.272Z,6.90
2022-09-30T07:12:52.375Z,6.80
2022-09-30T07:15:22.856Z,7.00
2022-09-30T07:17:54.050Z,7.30
2022-09-30T07:20:20.780Z,7.50
2022-09-30T07:22:47.584Z,7.50
2022-09-30T07:25:14.866Z,7.20
2022-09-30T07:27:41.738Z,7.40
2022-09-30T07:30:14.202Z,7.50
2022-09-30T07:32:44.988Z,7.40
2022-09-30T07:35:12.420Z,7.60
2022-09-30T07:37:39.086Z,7.70
2022-09-30T07:40:07.718Z,7.70
2022-09-30T07:42:39.204Z,7.70
2022-09-30T07:45:06.427Z,7.90
2022-09-30T07:47:33.094Z,8.10
2022-09-30T07:50:00.385Z,8.00
2022-09-30T07:52:27.086Z,8.10
2022-09-30T07:54:53.788Z,8.30
2022-09-30T07:57:21.613Z,8.50
2022-09-30T07:59:48.278Z,8.80
2022-09-30T08:02:17.520Z,8.90
2022-09-30T08:04:45.204Z,9.00
2022-09-30T08:07:14.896Z,9.00
2022-09-30T08:09:41.860Z,9.00
2022-09-30T08:12:09.201Z,9.20
2022-09-30T08:14:35.939Z,9.40
2022-09-30T08:17:02.691Z,9.50
2022-09-30T08:19:30.856Z,9.70
2022-09-30T08:21:57.900Z,9.60
2022-09-30T08:24:26.748Z,9.70
2022-09-30T08:26:54.208Z,9.90
2022-09-30T08:29:42.460Z,9.90
2022-09-30T08:32:07.784Z,10.00
2022-09-30T08:34:35.506Z,10.30
2022-09-30T08:37:07.871Z,10.40
2022-09-30T08:39:36.651Z,10.40
2022-09-30T08:42:36.088Z,10.40
2022-09-30T08:45:18.428Z,10.60
2022-09-30T08:48:29.255Z,11.00
2022-09-30T08:51:27.732Z,11.20
2022-09-30T08:53:55.842Z,11.20
2022-09-30T08:56:26.709Z,11.30
2022-09-30T08:59:02.111Z,11.20
2022-09-30T09:01:40.088Z,11.10
2022-09-30T09:04:08.394Z,11.20
2022-09-30T09:07:04.161Z,11.30
2022-09-30T09:09:40.403Z,11.70
2022-09-30T09:12:24.579Z,12.10
2022-09-30T09:15:14.968Z,12.20
2022-09-30T09:18:23.232Z,12.30
2022-09-30T09:21:22.327Z,12.30
2022-09-30T09:23:51.248Z,12.70
2022-09-30T09:26:18.694Z,13.20
2022-09-30T09:29:29.862Z,13.60
2022-09-30T09:31:59.333Z,13.90
2022-09-30T09:34:27.947Z,14.10
2022-09-30T09:37:59.813Z,14.40
2022-09-30T09:40:57.387Z,14.70
2022-09-30T09:43:51.475Z,14.80
2022-09-30T09:46:31.000Z,15.10
2022-09-30T09:49:17.313Z,15.10
2022-09-30T09:51:51.114Z,15.50
2022-09-30T09:54:20.456Z,16.40
2022-09-30T09:56:47.203Z,17.10
2022-09-30T09:59:19.351Z,17.80
2022-09-30T10:01:53.514Z,18.20
2022-09-30T10:04:26.104Z,19.20
2022-09-30T10:07:02.752Z,20.60
2022-09-30T10:09:36.284Z,22.10
2022-09-30T10:12:06.338Z,23.80
2022-09-30T10:14:49.059Z,25.30
2022-09-30T10:17:25.665Z,25.50
2022-09-30T10:19:55.154Z,26.40
2022-09-30T10:22:32.466Z,27.00
2022-09-30T10:25:14.651Z,27.90
2022-09-30T10:28:02.012Z,28.80
2022-09-30T10:30:55.273Z,29.40
2022-09-30T10:33:34.223Z,29.50
2022-09-30T10:36:14.546Z,29.10
2022-09-30T10:39:04.184Z,29.30
2022-09-30T10:41:36.359Z,30.20
2022-09-30T10:44:07.514Z,30.90
2022-09-30T10:46:39.067Z,31.10
2022-09-30T10:49:26.622Z,31.50
2022-09-30T10:51:54.220Z,31.20
2022-09-30T10:54:40.032Z,30.30
2022-09-30T10:57:18.752Z,30.40
2022-09-30T10:59:46.760Z,30.70
2022-09-30T11:02:34.899Z,31.10
2022-09-30T11:05:21.409Z,31.20
2022-09-30T11:08:04.065Z,31.50
2022-09-30T11:10:52.944Z,31.70
2022-09-30T11:13:25.924Z,31.20
2022-09-30T11:16:15.633Z,31.60
2022-09-30T11:18:55.578Z,31.70
2022-09-30T11:21:33.659Z,31.40
2022-09-30T11:24:11.051Z,30.30
2022-09-30T11:26:50.292Z,29.60
2022-09-30T11:29:32.118Z,29.50
2022-09-30T11:32:44.310Z,30.30
2022-09-30T11:35:35.017Z,30.90
2022-09-30T11:38:17.440Z,31.00
2022-09-30T11:41:27.521Z,31.00
2022-09-30T11:44:41.586Z,31.20
2022-09-30T11:47:32.894Z,31.40
2022-09-30T11:50:41.852Z,31.20
2022-09-30T11:53:17.178Z,31.10
2022-09-30T11:56:00.790Z,30.30
2022-09-30T11:58:41.355Z,30.00
2022-09-30T12:01:18.414Z,30.70
2022-09-30T12:03:55.869Z,31.20
2022-09-30T12:06:32.416Z,31.20
2022-09-30T12:09:15.258Z,31.40
2022-09-30T12:11:50.243Z,31.40
2022-09-30T12:14:27.346Z,31.50
2022-09-30T12:16:56.890Z,31.00
2022-09-30T12:19:48.276Z,30.50
2022-09-30T12:22:33.760Z,30.60
2022-09-30T12:25:03.115Z,30.90
2022-09-30T12:27:34.147Z,30.80
2022-09-30T12:30:17.726Z,31.00
2022-09-30T12:33:22.106Z,30.40
2022-09-30T12:35:59.360Z,30.00
2022-09-30T12:38:56.679Z,30.00
2022-09-30T12:41:39.083Z,30.20
2022-09-30T12:44:39.257Z,29.60
2022-09-30T12:47:05.928Z,29.30
2022-09-30T12:49:33.979Z,29.20
2022-09-30T12:52:07.260Z,29.30
2022-09-30T12:54:41.737Z,29.40
2022-09-30T12:57:09.665Z,28.90
2022-09-30T12:59:39.757Z,28.40
2022-09-30T13:02:08.565Z,28.50
2022-09-30T13:04:43.129Z,28.40
2022-09-30T13:07:21.837Z,28.60
2022-09-30T13:10:03.183Z,28.70
2022-09-30T13:13:08.413Z,27.70
2022-09-30T13:15:42.029Z,26.10
2022-09-30T13:18:20.927Z,25.10
2022-09-30T13:20:57.649Z,24.80
2022-09-30T13:23:45.266Z,24.80
2022-09-30T13:26:33.469Z,24.60
2022-09-30T13:29:00.435Z,24.30
2022-09-30T13:31:29.979Z,23.80
2022-09-30T13:34:02.544Z,23.00
2022-09-30T13:36:56.791Z,22.60
2022-09-30T13:39:29.613Z,22.00
2022-09-30T13:42:20.446Z,21.60
2022-09-30T13:45:13.086Z,21.30
2022-09-30T13:48:11.144Z,20.80
2022-09-30T13:50:46.827Z,20.40
2022-09-30T13:53:29.391Z,20.00
2022-09-30T13:55:57.816Z,20.10
2022-09-30T13:58:27.251Z,20.00
2022-09-30T14:01:06.975Z,20.20
2022-09-30T14:03:39.239Z,20.00
2022-09-30T14:06:38.284Z,20.00
2022-09-30T14:09:23.836Z,20.40
2022-09-30T14:12:13.442Z,20.50
2022-09-30T14:15:17.245Z,20.40
2022-09-30T14:18:12.113Z,20.10
2022-09-30T14:21:26.933Z,19.60
2022-09-30T14:24:16.125Z,19.30
2022-09-30T14:27:04.287Z,19.60
2022-09-30T14:29:49.546Z,19.60
2022-09-30T14:32:25.812Z,19.60
2022-09-30T14:34:53.529Z,19.10
2022-09-30T14:37:45.609Z,18.90
2022-09-30T14:40:17.669Z,19.00
2022-09-30T14:42:47.827Z,19.00
2022-09-30T14:45:31.144Z,19.00
2022-09-30T14:48:22.587Z,18.90
2022-09-30T14:50:57.270Z,18.80
2022-09-30T14:53:25.310Z,18.80
2022-09-30T14:55:52.706Z,18.90
2022-09-30T14:58:30.555Z,18.80
2022-09-30T15:01:05.672Z,18.80
2022-09-30T15:03:39.394Z,18.70
2022-09-30T15:06:16.863Z,18.60
2022-09-30T15:08:44.379Z,18.60
2022-09-30T15:11:21.793Z,18.60
2022-09-30T15:13:53.524Z,18.60
2022-09-30T15:16:29.889Z,18.70
2022-09-30T15:18:57.786Z,18.70
2022-09-30T15:21:27.246Z,18.50
2022-09-30T15:24:00.648Z,18.60
2022-09-30T15:26:27.703Z,18.60
2022-09-30T15:28:54.856Z,18.20
2022-09-30T15:31:26.095Z,18.00
2022-09-30T15:34:20.449Z,17.60
2022-09-30T15:36:58.458Z,17.70
2022-09-30T15:39:51.278Z,17.50
2022-09-30T15:42:39.443Z,17.50
2022-09-30T15:45:35.281Z,17.70
2022-09-30T15:48:06.907Z,17.70
2022-09-30T15:50:37.996Z,17.50
2022-09-30T15:53:13.735Z,17.70
2022-09-30T15:55:55.619Z,17.60
2022-09-30T15:58:37.054Z,17.40
2022-09-30T16:01:23.413Z,17.30
2022-09-30T16:03:54.133Z,17.30
2022-09-30T16:06:32.520Z,17.30
2022-09-30T16:09:08.578Z,17.00
2022-09-30T16:11:41.013Z,16.80
2022-09-30T16:14:16.650Z,16.80
2022-09-30T16:16:50.601Z,16.60
2022-09-30T16:19:18.729Z,16.40
2022-09-30T16:21:50.927Z,16.40
2022-09-30T16:24:27.960Z,16.10
2022-09-30T16:26:58.382Z,16.20
2022-09-30T16:29:26.761Z,16.20
2022-09-30T16:31:56.303Z,15.70
2022-09-30T16:34:24.600Z,15.40
2022-09-30T16:36:53.813Z,15.20
2022-09-30T16:39:20.878Z,15.30
2022-09-30T16:41:47.860Z,15.20
2022-09-30T16:44:14.547Z,15.10
2022-09-30T16:46:41.205Z,15.20
2022-09-30T16:49:19.580Z,14.90
2022-09-30T16:51:46.626Z,14.70
2022-09-30T16:54:13.717Z,14.50
2022-09-30T16:56:40.414Z,14.40
2022-09-30T16:59:17.433Z,14.20
2022-09-30T17:01:44.223Z,14.10
2022-09-30T17:04:14.116Z,14.00
2022-09-30T17:06:44.337Z,14.10
2022-09-30T17:09:11.097Z,14.00
2022-09-30T17:11:38.168Z,14.20
2022-09-30T17:14:05.451Z,14.40
2022-09-30T17:16:33.134Z,14.30
2022-09-30T17:19:00.156Z,14.00
2022-09-30T17:21:27.605Z,13.80
2022-09-30T17:23:55.556Z,13.80
2022-09-30T17:26:22.605Z,13.70
2022-09-30T17:28:49.309Z,13.60
2022-09-30T17:31:16.073Z,13.50
2022-09-30T17:33:42.862Z,13.60
2022-09-30T17:36:12.437Z,13.70
2022-09-30T17:38:40.026Z,13.50
2022-09-30T17:41:26.283Z,13.30
2022-09-30T17:43:52.949Z,13.50
2022-09-30T17:46:23.079Z,13.20
2022-09-30T17:48:54.214Z,13.00
2022-09-30T17:51:20.916Z,12.90
2022-09-30T17:53:48.084Z,12.80
2022-09-30T17:56:22.254Z,12.90
2022-09-30T17:58:50.543Z,12.90
2022-09-30T18:01:20.380Z,12.80
2022-09-30T18:03:47.725Z,12.60
2022-09-30T18:06:14.491Z,12.50
2022-09-30T18:08:41.534Z,12.60
2022-09-30T18:11:08.427Z,12.40
2022-09-30T18:13:40.347Z,12.40
2022-09-30T18:16:07.512Z,12.20
2022-09-30T18:18:35.366Z,12.10
2022-09-30T18:21:02.081Z,12.20
2022-09-30T18:23:28.773Z,12.20
2022-09-30T18:25:56.471Z,12.20
2022-09-30T18:28:23.311Z,12.10
2022-09-30T18:30:50.240Z,11.90
2022-09-30T18:33:20.856Z,11.90
2022-09-30T18:35:47.521Z,11.80
2022-09-30T18:38:14.848Z,11.60
2022-09-30T18:40:43.493Z,11.70
2022-09-30T18:43:13.868Z,11.60
2022-09-30T18:45:40.781Z,11.50
2022-09-30T18:48:08.362Z,11.30
2022-09-30T18:50:35.387Z,11.20
2022-09-30T18:53:09.458Z,11.40
2022-09-30T18:55:37.998Z,11.20
2022-09-30T18:58:05.286Z,11.00
2022-09-30T19:00:32.029Z,10.80
2022-09-30T19:02:58.906Z,10.80
2022-09-30T19:05:25.971Z,11.00
2022-09-30T19:07:53.501Z,10.90
2022-09-30T19:10:20.584Z,10.80
2022-09-30T19:12:47.495Z,10.80
2022-09-30T19:15:16.186Z,10.80
2022-09-30T19:17:43.901Z,10.90
2022-09-30T19:20:12.271Z,11.00
2022-09-30T19:22:39.315Z,10.90
2022-09-30T19:25:08.588Z,10.80
2022-09-30T19:27:38.395Z,10.80
2022-09-30T19:30:06.549Z,10.90
2022-09-30T19:32:36.596Z,10.90
2022-09-30T19:35:06.809Z,10.80
2022-09-30T19:37:34.421Z,10.60
2022-09-30T19:40:13.575Z,10.70
2022-09-30T19:42:47.434Z,10.60
2022-09-30T19:45:16.466Z,10.40
2022-09-30T19:47:43.402Z,10.50
2022-09-30T19:50:10.169Z,10.30
2022-09-30T19:52:43.850Z,10.30
2022-09-30T19:55:16.861Z,10.20
2022-09-30T19:57:43.734Z,10.20
2022-09-30T20:00:12.867Z,10.10
2022-09-30T20:02:39.759Z,10.10
2022-09-30T20:05:07.189Z,10.10
2022-09-30T20:07:35.013Z,10.30
2022-09-30T20:10:01.933Z,10.40
2022-09-30T20:12:29.121Z,10.40
2022-09-30T20:15:16.265Z,10.10
2022-09-30T20:17:42.908Z,10.00
2022-09-30T20:20:28.817Z,9.70
2022-09-30T20:22:57.101Z,9.60
2022-09-30T20:25:23.867Z,9.40
2022-09-30T20:27:52.607Z,9.40
2022-09-30T20:30:20.338Z,9.50
2022-09-30T20:32:47.008Z,9.70
2022-09-30T20:35:13.873Z,9.60
2022-09-30T20:37:41.751Z,9.60
2022-09-30T20:40:11.479Z,9.80
2022-09-30T20:42:39.948Z,9.70
2022-09-30T20:45:10.256Z,9.40
2022-09-30T20:47:38.804Z,9.40
2022-09-30T20:50:06.624Z,9.40
2022-09-30T20:52:33.381Z,9.30
2022-09-30T20:55:00.244Z,9.30
2022-09-30T20:57:31.172Z,9.40
2022-09-30T21:00:01.749Z,9.20
2022-09-30T21:02:29.100Z,9.30
2022-09-30T21:04:58.634Z,9.60
2022-09-30T21:07:26.313Z,9.60
2022-09-30T21:09:53.067Z,9.50
2022-09-30T21:12:19.930Z,9.60
2022-09-30T21:14:46.628Z,9.40
2022-09-30T21:17:13.518Z,9.60
2022-09-30T21:19:40.207Z,9.70
2022-09-30T21:22:07.158Z,9.80
2022-09-30T21:24:33.868Z,9.80
2022-09-30T21:27:01.707Z,9.80
2022-09-30T21:29:30.658Z,9.70
2022-09-30T21:31:57.643Z,9.60
2022-09-30T21:34:24.776Z,9.70
2022-09-30T21:36:51.532Z,9.70
2022-09-30T21:39:18.414Z,9.70
2022-09-30T21:41:45.916Z,9.70
2022-09-30T21:44:13.862Z,9.60
2022-09-30T21:46:44.736Z,9.90
2022-09-30T21:49:14.114Z,9.80
2022-09-30T21:51:41.702Z,9.80
2022-09-30T21:54:10.051Z,9.80
2022-09-30T21:56:36.984Z,9.90
2022-09-30T21:59:04.684Z,9.80
2022-09-30T22:01:32.048Z,9.80
2022-09-30T22:03:59.054Z,9.70
2022-09-30T22:06:25.897Z,9.70
2022-09-30T22:08:52.601Z,9.70
2022-09-30T22:11:24.746Z,9.70
2022-09-30T22:13:55.483Z,9.60
2022-09-30T22:16:26.036Z,9.60
2022-09-30T22:19:00.707Z,9.70
2022-09-30T22:21:31.791Z,9.60
2022-09-30T22:24:00.144Z,9.70
2022-09-30T22:26:27.284Z,9.70
2022-09-30T22:28:56.663Z,9.50
2022-09-30T22:31:25.957Z,9.30
2022-09-30T22:34:14.228Z,9.30
2022-09-30T22:37:00.138Z,9.40
2022-09-30T22:39:27.065Z,9.60
2022-09-30T22:41:55.656Z,9.60
2022-09-30T22:44:25.461Z,9.80
2022-09-30T22:46:53.560Z,9.60
2022-09-30T22:49:21.078Z,9.40
2022-09-30T22:51:51.838Z,9.40
2022-09-30T22:54:18.793Z,9.60
2022-09-30T22:56:46.143Z,9.40
2022-09-30T22:59:12.839Z,9.20
2022-09-30T23:01:39.526Z,9.10
2022-09-30T23:04:07.941Z,9.20
2022-09-30T23:06:34.621Z,9.20
2022-09-30T23:09:07.009Z,9.10
2022-09-30T23:11:35.575Z,9.10
2022-09-30T23:14:03.177Z,8.80
2022-09-30T23:16:30.190Z,8.60
2022-09-30T23:18:58.139Z,8.50
2022-09-30T23:21:24.792Z,8.50
2022-09-30T23:23:52.395Z,8.60
2022-09-30T23:26:25.144Z,8.60
2022-09-30T23:29:03.020Z,8.60
2022-09-30T23:31:30.417Z,8.80
2022-09-30T23:33:59.789Z,9.00
2022-09-30T23:36:32.130Z,8.90
2022-09-30T23:39:04.945Z,8.70
2022-09-30T23:41:32.873Z,8.60
2022-09-30T23:43:59.905Z,8.60
2022-09-30T23:46:26.815Z,8.70
2022-09-30T23:48:53.488Z,8.70
2022-09-30T23:51:20.205Z,8.70
2022-09-30T23:53:47.178Z,8.90
2022-09-30T23:56:16.244Z,8.80
2022-09-30T23:58:43.825Z,8.80
